sensor_id;sensor_type;location;lat;lon;timestamp;P1;durP1;ratioP1;P2;durP2;ratioP2
5929;SDS011;2990;48.746;9.236;2024-02-14T00:00:17;1.33;;;1.23;;
5929;SDS011;2990;48.746;9.236;2024-02-14T00:02:44;4.05;;;2.00;;
5929;SDS011;2990;48.746;9.236;2024-02-14T00:05:14;1.42;;;1.33;;
5929;SDS011;2990;48.746;9.236;2024-02-14T00:07:40;1.55;;;1.55;;
5929;SDS011;2990;48.746;9.236;2024-02-14T00:10:07;1.65;;;1.38;;
5929;SDS011;2990;48.746;9.236;2024-02-14T00:12:34;1.02;;;0.98;;
5929;SDS011;2990;48.746;9.236;2024-02-14T00:15:00;1.63;;;1.63;;
5929;SDS011;2990;48.746;9.236;2024-02-14T00:17:28;0.85;;;0.85;;
5929;SDS011;2990;48.746;9.236;2024-02-14T00:19:54;1.73;;;1.27;;
5929;SDS011;2990;48.746;9.236;2024-02-14T00:22:20;0.82;;;0.82;;
5929;SDS011;2990;48.746;9.236;2024-02-14T00:24:46;0.70;;;0.70;;
5929;SDS011;2990;48.746;9.236;2024-02-14T00:27:12;0.85;;;0.85;;
5929;SDS011;2990;48.746;9.236;2024-02-14T00:29:39;0.98;;;0.98;;
5929;SDS011;2990;48.746;9.236;2024-02-14T00:32:05;0.73;;;0.68;;
5929;SDS011;2990;48.746;9.236;2024-02-14T00:34:31;0.70;;;0.70;;
5929;SDS011;2990;48.746;9.236;2024-02-14T00:36:57;0.73;;;0.73;;
5929;SDS011;2990;48.746;9.236;2024-02-14T00:39:23;0.77;;;0.77;;
5929;SDS011;2990;48.746;9.236;2024-02-14T00:41:49;3.15;;;0.75;;
5929;SDS011;2990;48.746;9.236;2024-02-14T00:44:17;0.82;;;0.82;;
5929;SDS011;2990;48.746;9.236;2024-02-14T00:46:43;0.70;;;0.70;;
5929;SDS011;2990;48.746;9.236;2024-02-14T00:49:09;1.73;;;0.95;;
5929;SDS011;2990;48.746;9.236;2024-02-14T00:51:35;1.13;;;1.13;;
5929;SDS011;2990;48.746;9.236;2024-02-14T00:54:03;0.70;;;0.70;;
5929;SDS011;2990;48.746;9.236;2024-02-14T00:56:29;0.93;;;0.60;;
5929;SDS011;2990;48.746;9.236;2024-02-14T00:58:54;0.52;;;0.52;;
5929;SDS011;2990;48.746;9.236;2024-02-14T01:01:21;0.75;;;0.75;;
5929;SDS011;2990;48.746;9.236;2024-02-14T01:03:47;1.05;;;0.60;;
5929;SDS011;2990;48.746;9.236;2024-02-14T01:06:14;2.60;;;0.85;;
5929;SDS011;2990;48.746;9.236;2024-02-14T01:08:40;4.22;;;0.93;;
5929;SDS011;2990;48.746;9.236;2024-02-14T01:11:07;1.10;;;1.10;;
5929;SDS011;2990;48.746;9.236;2024-02-14T01:13:33;0.68;;;0.68;;
5929;SDS011;2990;48.746;9.236;2024-02-14T01:15:59;0.70;;;0.70;;
5929;SDS011;2990;48.746;9.236;2024-02-14T01:18:24;0.77;;;0.52;;
5929;SDS011;2990;48.746;9.236;2024-02-14T01:20:50;0.50;;;0.50;;
5929;SDS011;2990;48.746;9.236;2024-02-14T01:23:15;0.45;;;0.45;;
5929;SDS011;2990;48.746;9.236;2024-02-14T01:25:41;0.35;;;0.35;;
5929;SDS011;2990;48.746;9.236;2024-02-14T01:28:07;0.55;;;0.55;;
5929;SDS011;2990;48.746;9.236;2024-02-14T01:30:33;0.50;;;0.50;;
5929;SDS011;2990;48.746;9.236;2024-02-14T01:33:00;0.70;;;0.70;;
5929;SDS011;2990;48.746;9.236;2024-02-14T01:35:29;0.80;;;0.80;;
5929;SDS011;2990;48.746;9.236;2024-02-14T01:37:58;1.20;;;0.70;;
5929;SDS011;2990;48.746;9.236;2024-02-14T01:40:27;0.68;;;0.68;;
5929;SDS011;2990;48.746;9.236;2024-02-14T01:42:53;0.63;;;0.60;;
5929;SDS011;2990;48.746;9.236;2024-02-14T01:45:20;0.60;;;0.60;;
5929;SDS011;2990;48.746;9.236;2024-02-14T01:47:46;0.65;;;0.65;;
5929;SDS011;2990;48.746;9.236;2024-02-14T01:50:13;0.75;;;0.75;;
5929;SDS011;2990;48.746;9.236;2024-02-14T01:52:39;0.73;;;0.73;;
5929;SDS011;2990;48.746;9.236;2024-02-14T01:55:06;0.75;;;0.75;;
5929;SDS011;2990;48.746;9.236;2024-02-14T01:57:33;1.48;;;0.82;;
5929;SDS011;2990;48.746;9.236;2024-02-14T02:00:01;0.55;;;0.55;;
5929;SDS011;2990;48.746;9.236;2024-02-14T02:02:33;1.20;;;0.75;;
5929;SDS011;2990;48.746;9.236;2024-02-14T02:05:02;0.98;;;0.95;;
5929;SDS011;2990;48.746;9.236;2024-02-14T02:07:28;0.70;;;0.70;;
5929;SDS011;2990;48.746;9.236;2024-02-14T02:09:55;0.70;;;0.70;;
5929;SDS011;2990;48.746;9.236;2024-02-14T02:12:21;0.68;;;0.68;;
5929;SDS011;2990;48.746;9.236;2024-02-14T02:14:46;1.00;;;1.00;;
5929;SDS011;2990;48.746;9.236;2024-02-14T02:17:12;0.73;;;0.60;;
5929;SDS011;2990;48.746;9.236;2024-02-14T02:19:38;0.30;;;0.30;;
5929;SDS011;2990;48.746;9.236;2024-02-14T02:22:04;0.60;;;0.60;;
5929;SDS011;2990;48.746;9.236;2024-02-14T02:24:30;0.70;;;0.70;;
5929;SDS011;2990;48.746;9.236;2024-02-14T02:26:55;3.08;;;0.57;;
5929;SDS011;2990;48.746;9.236;2024-02-14T02:29:21;0.57;;;0.57;;
5929;SDS011;2990;48.746;9.236;2024-02-14T02:31:47;2.55;;;0.70;;
5929;SDS011;2990;48.746;9.236;2024-02-14T02:34:13;1.45;;;0.85;;
5929;SDS011;2990;48.746;9.236;2024-02-14T02:36:39;0.47;;;0.47;;
5929;SDS011;2990;48.746;9.236;2024-02-14T02:39:06;1.27;;;0.45;;
5929;SDS011;2990;48.746;9.236;2024-02-14T02:41:34;0.90;;;0.90;;
5929;SDS011;2990;48.746;9.236;2024-02-14T02:43:59;0.70;;;0.70;;
5929;SDS011;2990;48.746;9.236;2024-02-14T02:46:27;1.33;;;1.17;;
5929;SDS011;2990;48.746;9.236;2024-02-14T02:48:54;0.80;;;0.80;;
5929;SDS011;2990;48.746;9.236;2024-02-14T02:51:20;0.57;;;0.57;;
5929;SDS011;2990;48.746;9.236;2024-02-14T02:53:46;0.80;;;0.80;;
5929;SDS011;2990;48.746;9.236;2024-02-14T02:56:12;0.90;;;0.90;;
5929;SDS011;2990;48.746;9.236;2024-02-14T02:58:39;0.80;;;0.80;;
5929;SDS011;2990;48.746;9.236;2024-02-14T03:01:10;1.33;;;1.17;;
5929;SDS011;2990;48.746;9.236;2024-02-14T03:03:36;0.90;;;0.90;;
5929;SDS011;2990;48.746;9.236;2024-02-14T03:06:03;1.30;;;1.30;;
5929;SDS011;2990;48.746;9.236;2024-02-14T03:08:30;1.38;;;1.38;;
5929;SDS011;2990;48.746;9.236;2024-02-14T03:11:09;3.53;;;0.75;;
5929;SDS011;2990;48.746;9.236;2024-02-14T03:13:34;1.10;;;1.10;;
5929;SDS011;2990;48.746;9.236;2024-02-14T03:16:05;1.05;;;1.05;;
5929;SDS011;2990;48.746;9.236;2024-02-14T03:18:33;0.70;;;0.70;;
5929;SDS011;2990;48.746;9.236;2024-02-14T03:20:58;1.48;;;0.85;;
5929;SDS011;2990;48.746;9.236;2024-02-14T03:23:24;4.38;;;1.52;;
5929;SDS011;2990;48.746;9.236;2024-02-14T03:25:50;0.70;;;0.70;;
5929;SDS011;2990;48.746;9.236;2024-02-14T03:28:16;1.00;;;0.88;;
5929;SDS011;2990;48.746;9.236;2024-02-14T03:30:43;1.45;;;1.10;;
5929;SDS011;2990;48.746;9.236;2024-02-14T03:33:08;1.27;;;0.90;;
5929;SDS011;2990;48.746;9.236;2024-02-14T03:35:34;1.20;;;1.20;;
5929;SDS011;2990;48.746;9.236;2024-02-14T03:38:01;0.90;;;0.90;;
5929;SDS011;2990;48.746;9.236;2024-02-14T03:40:26;1.02;;;1.02;;
5929;SDS011;2990;48.746;9.236;2024-02-14T03:42:55;0.60;;;0.60;;
5929;SDS011;2990;48.746;9.236;2024-02-14T03:45:21;0.82;;;0.82;;
5929;SDS011;2990;48.746;9.236;2024-02-14T03:47:46;1.05;;;0.90;;
5929;SDS011;2990;48.746;9.236;2024-02-14T03:50:12;0.65;;;0.65;;
5929;SDS011;2990;48.746;9.236;2024-02-14T03:52:37;0.65;;;0.65;;
5929;SDS011;2990;48.746;9.236;2024-02-14T03:55:03;0.68;;;0.68;;
5929;SDS011;2990;48.746;9.236;2024-02-14T04:00:52;0.70;;;0.70;;
5929;SDS011;2990;48.746;9.236;2024-02-14T04:03:17;0.65;;;0.65;;
5929;SDS011;2990;48.746;9.236;2024-02-14T04:05:43;0.93;;;0.90;;
5929;SDS011;2990;48.746;9.236;2024-02-14T04:08:11;0.80;;;0.80;;
5929;SDS011;2990;48.746;9.236;2024-02-14T04:10:37;0.75;;;0.75;;
5929;SDS011;2990;48.746;9.236;2024-02-14T04:13:03;0.57;;;0.57;;
5929;SDS011;2990;48.746;9.236;2024-02-14T04:15:29;0.70;;;0.70;;
5929;SDS011;2990;48.746;9.236;2024-02-14T04:17:59;0.57;;;0.57;;
5929;SDS011;2990;48.746;9.236;2024-02-14T04:20:25;0.57;;;0.57;;
5929;SDS011;2990;48.746;9.236;2024-02-14T04:22:51;0.50;;;0.50;;
5929;SDS011;2990;48.746;9.236;2024-02-14T04:25:16;2.67;;;0.75;;
5929;SDS011;2990;48.746;9.236;2024-02-14T04:27:44;0.65;;;0.65;;
5929;SDS011;2990;48.746;9.236;2024-02-14T04:30:10;0.90;;;0.90;;
5929;SDS011;2990;48.746;9.236;2024-02-14T04:32:36;0.70;;;0.70;;
5929;SDS011;2990;48.746;9.236;2024-02-14T04:35:02;0.60;;;0.60;;
5929;SDS011;2990;48.746;9.236;2024-02-14T04:37:28;0.77;;;0.77;;
5929;SDS011;2990;48.746;9.236;2024-02-14T04:39:55;0.57;;;0.57;;
5929;SDS011;2990;48.746;9.236;2024-02-14T04:42:20;2.20;;;0.95;;
5929;SDS011;2990;48.746;9.236;2024-02-14T04:44:46;0.60;;;0.60;;
5929;SDS011;2990;48.746;9.236;2024-02-14T04:47:12;0.50;;;0.50;;
5929;SDS011;2990;48.746;9.236;2024-02-14T04:49:37;0.73;;;0.73;;
5929;SDS011;2990;48.746;9.236;2024-02-14T04:52:03;0.38;;;0.38;;
5929;SDS011;2990;48.746;9.236;2024-02-14T04:54:30;0.40;;;0.40;;
5929;SDS011;2990;48.746;9.236;2024-02-14T04:56:55;1.15;;;0.82;;
5929;SDS011;2990;48.746;9.236;2024-02-14T04:59:21;0.43;;;0.43;;
5929;SDS011;2990;48.746;9.236;2024-02-14T05:01:48;0.50;;;0.50;;
5929;SDS011;2990;48.746;9.236;2024-02-14T05:04:13;0.30;;;0.30;;
5929;SDS011;2990;48.746;9.236;2024-02-14T05:06:41;0.38;;;0.38;;
5929;SDS011;2990;48.746;9.236;2024-02-14T05:09:07;0.68;;;0.68;;
5929;SDS011;2990;48.746;9.236;2024-02-14T05:11:35;0.90;;;0.90;;
5929;SDS011;2990;48.746;9.236;2024-02-14T05:14:01;0.40;;;0.40;;
5929;SDS011;2990;48.746;9.236;2024-02-14T05:16:28;0.65;;;0.65;;
5929;SDS011;2990;48.746;9.236;2024-02-14T05:18:54;0.60;;;0.60;;
5929;SDS011;2990;48.746;9.236;2024-02-14T05:21:20;0.70;;;0.70;;
5929;SDS011;2990;48.746;9.236;2024-02-14T05:23:46;0.50;;;0.50;;
5929;SDS011;2990;48.746;9.236;2024-02-14T05:26:13;1.50;;;0.60;;
5929;SDS011;2990;48.746;9.236;2024-02-14T05:28:42;0.85;;;0.85;;
5929;SDS011;2990;48.746;9.236;2024-02-14T05:31:07;0.70;;;0.70;;
5929;SDS011;2990;48.746;9.236;2024-02-14T05:33:33;0.98;;;0.90;;
5929;SDS011;2990;48.746;9.236;2024-02-14T05:35:58;0.93;;;0.93;;
5929;SDS011;2990;48.746;9.236;2024-02-14T05:38:24;0.80;;;0.80;;
5929;SDS011;2990;48.746;9.236;2024-02-14T05:40:50;1.33;;;1.25;;
5929;SDS011;2990;48.746;9.236;2024-02-14T05:43:15;1.15;;;1.15;;
5929;SDS011;2990;48.746;9.236;2024-02-14T05:45:43;0.95;;;0.95;;
5929;SDS011;2990;48.746;9.236;2024-02-14T05:48:09;0.88;;;0.88;;
5929;SDS011;2990;48.746;9.236;2024-02-14T05:50:34;0.85;;;0.85;;
5929;SDS011;2990;48.746;9.236;2024-02-14T05:53:00;1.27;;;1.17;;
5929;SDS011;2990;48.746;9.236;2024-02-14T05:55:26;0.90;;;0.90;;
5929;SDS011;2990;48.746;9.236;2024-02-14T05:57:51;1.20;;;1.20;;
5929;SDS011;2990;48.746;9.236;2024-02-14T06:00:18;1.65;;;1.20;;
5929;SDS011;2990;48.746;9.236;2024-02-14T06:02:48;1.10;;;1.10;;
5929;SDS011;2990;48.746;9.236;2024-02-14T06:05:14;1.33;;;1.33;;
5929;SDS011;2990;48.746;9.236;2024-02-14T06:07:40;0.88;;;0.88;;
5929;SDS011;2990;48.746;9.236;2024-02-14T06:10:07;2.10;;;1.67;;
5929;SDS011;2990;48.746;9.236;2024-02-14T06:12:33;1.42;;;1.33;;
5929;SDS011;2990;48.746;9.236;2024-02-14T06:15:00;1.45;;;1.35;;
5929;SDS011;2990;48.746;9.236;2024-02-14T06:17:26;1.40;;;1.33;;
5929;SDS011;2990;48.746;9.236;2024-02-14T06:19:51;1.65;;;1.65;;
5929;SDS011;2990;48.746;9.236;2024-02-14T06:22:17;1.67;;;1.58;;
5929;SDS011;2990;48.746;9.236;2024-02-14T06:24:43;1.52;;;1.10;;
5929;SDS011;2990;48.746;9.236;2024-02-14T06:27:09;1.27;;;1.27;;
5929;SDS011;2990;48.746;9.236;2024-02-14T06:29:34;0.90;;;0.90;;
5929;SDS011;2990;48.746;9.236;2024-02-14T06:32:00;1.20;;;1.10;;
5929;SDS011;2990;48.746;9.236;2024-02-14T06:34:26;1.52;;;0.90;;
5929;SDS011;2990;48.746;9.236;2024-02-14T06:36:53;0.85;;;0.85;;
5929;SDS011;2990;48.746;9.236;2024-02-14T06:39:20;0.63;;;0.63;;
5929;SDS011;2990;48.746;9.236;2024-02-14T06:41:47;0.90;;;0.90;;
5929;SDS011;2990;48.746;9.236;2024-02-14T06:44:13;0.60;;;0.60;;
5929;SDS011;2990;48.746;9.236;2024-02-14T06:46:38;0.60;;;0.50;;
5929;SDS011;2990;48.746;9.236;2024-02-14T06:49:04;0.75;;;0.75;;
5929;SDS011;2990;48.746;9.236;2024-02-14T06:51:30;1.95;;;0.88;;
5929;SDS011;2990;48.746;9.236;2024-02-14T06:53:56;0.77;;;0.77;;
5929;SDS011;2990;48.746;9.236;2024-02-14T06:56:22;0.75;;;0.75;;
5929;SDS011;2990;48.746;9.236;2024-02-14T06:58:47;0.35;;;0.35;;
5929;SDS011;2990;48.746;9.236;2024-02-14T07:01:18;0.50;;;0.50;;
5929;SDS011;2990;48.746;9.236;2024-02-14T07:03:47;0.43;;;0.40;;
5929;SDS011;2990;48.746;9.236;2024-02-14T07:06:16;0.75;;;0.73;;
5929;SDS011;2990;48.746;9.236;2024-02-14T07:08:43;0.50;;;0.50;;
5929;SDS011;2990;48.746;9.236;2024-02-14T07:11:08;0.50;;;0.50;;
5929;SDS011;2990;48.746;9.236;2024-02-14T07:16:56;1.45;;;0.82;;
5929;SDS011;2990;48.746;9.236;2024-02-14T07:19:22;0.50;;;0.50;;
5929;SDS011;2990;48.746;9.236;2024-02-14T07:21:47;0.50;;;0.50;;
5929;SDS011;2990;48.746;9.236;2024-02-14T07:24:13;0.43;;;0.43;;
5929;SDS011;2990;48.746;9.236;2024-02-14T07:26:38;0.50;;;0.50;;
5929;SDS011;2990;48.746;9.236;2024-02-14T07:29:09;0.40;;;0.40;;
5929;SDS011;2990;48.746;9.236;2024-02-14T07:31:35;0.47;;;0.47;;
5929;SDS011;2990;48.746;9.236;2024-02-14T07:34:00;0.77;;;0.77;;
5929;SDS011;2990;48.746;9.236;2024-02-14T07:36:28;0.40;;;0.40;;
5929;SDS011;2990;48.746;9.236;2024-02-14T07:38:54;0.55;;;0.55;;
5929;SDS011;2990;48.746;9.236;2024-02-14T07:41:19;0.50;;;0.50;;
5929;SDS011;2990;48.746;9.236;2024-02-14T07:43:45;0.75;;;0.75;;
5929;SDS011;2990;48.746;9.236;2024-02-14T07:46:11;0.47;;;0.47;;
5929;SDS011;2990;48.746;9.236;2024-02-14T07:48:41;1.98;;;0.30;;
5929;SDS011;2990;48.746;9.236;2024-02-14T07:51:07;0.30;;;0.30;;
5929;SDS011;2990;48.746;9.236;2024-02-14T07:53:33;0.60;;;0.60;;
5929;SDS011;2990;48.746;9.236;2024-02-14T07:55:58;0.50;;;0.50;;
5929;SDS011;2990;48.746;9.236;2024-02-14T07:58:24;0.40;;;0.40;;
5929;SDS011;2990;48.746;9.236;2024-02-14T08:00:49;0.43;;;0.30;;
5929;SDS011;2990;48.746;9.236;2024-02-14T08:03:15;0.50;;;0.50;;
5929;SDS011;2990;48.746;9.236;2024-02-14T08:05:40;0.32;;;0.32;;
5929;SDS011;2990;48.746;9.236;2024-02-14T08:08:07;0.30;;;0.30;;
5929;SDS011;2990;48.746;9.236;2024-02-14T08:10:33;3.72;;;0.50;;
5929;SDS011;2990;48.746;9.236;2024-02-14T08:12:58;0.43;;;0.43;;
5929;SDS011;2990;48.746;9.236;2024-02-14T08:15:24;0.40;;;0.40;;
5929;SDS011;2990;48.746;9.236;2024-02-14T08:17:50;0.50;;;0.50;;
5929;SDS011;2990;48.746;9.236;2024-02-14T08:20:15;0.40;;;0.40;;
5929;SDS011;2990;48.746;9.236;2024-02-14T08:22:42;0.47;;;0.47;;
5929;SDS011;2990;48.746;9.236;2024-02-14T08:25:08;0.30;;;0.30;;
5929;SDS011;2990;48.746;9.236;2024-02-14T08:27:34;0.30;;;0.30;;
5929;SDS011;2990;48.746;9.236;2024-02-14T08:33:21;0.68;;;0.68;;
5929;SDS011;2990;48.746;9.236;2024-02-14T08:35:49;0.50;;;0.50;;
5929;SDS011;2990;48.746;9.236;2024-02-14T08:38:14;0.65;;;0.57;;
5929;SDS011;2990;48.746;9.236;2024-02-14T08:40:40;1.38;;;1.05;;
5929;SDS011;2990;48.746;9.236;2024-02-14T08:43:05;0.82;;;0.70;;
5929;SDS011;2990;48.746;9.236;2024-02-14T08:45:32;0.52;;;0.52;;
5929;SDS011;2990;48.746;9.236;2024-02-14T08:47:57;0.95;;;0.65;;
5929;SDS011;2990;48.746;9.236;2024-02-14T08:50:23;0.55;;;0.30;;
5929;SDS011;2990;48.746;9.236;2024-02-14T08:52:48;0.45;;;0.43;;
5929;SDS011;2990;48.746;9.236;2024-02-14T08:55:14;0.40;;;0.40;;
5929;SDS011;2990;48.746;9.236;2024-02-14T08:57:42;0.32;;;0.32;;
5929;SDS011;2990;48.746;9.236;2024-02-14T09:00:08;3.92;;;0.63;;
5929;SDS011;2990;48.746;9.236;2024-02-14T09:02:35;0.20;;;0.20;;
5929;SDS011;2990;48.746;9.236;2024-02-14T09:05:03;0.32;;;0.32;;
5929;SDS011;2990;48.746;9.236;2024-02-14T09:07:30;3.17;;;0.30;;
5929;SDS011;2990;48.746;9.236;2024-02-14T09:09:57;0.40;;;0.40;;
5929;SDS011;2990;48.746;9.236;2024-02-14T09:12:23;0.30;;;0.30;;
5929;SDS011;2990;48.746;9.236;2024-02-14T09:14:48;0.43;;;0.43;;
5929;SDS011;2990;48.746;9.236;2024-02-14T09:17:14;1.98;;;0.50;;
5929;SDS011;2990;48.746;9.236;2024-02-14T09:19:40;0.40;;;0.40;;
5929;SDS011;2990;48.746;9.236;2024-02-14T09:22:05;1.10;;;0.80;;
5929;SDS011;2990;48.746;9.236;2024-02-14T09:24:31;0.50;;;0.50;;
5929;SDS011;2990;48.746;9.236;2024-02-14T09:26:57;0.50;;;0.47;;
5929;SDS011;2990;48.746;9.236;2024-02-14T09:29:23;0.40;;;0.40;;
5929;SDS011;2990;48.746;9.236;2024-02-14T09:31:50;0.43;;;0.43;;
5929;SDS011;2990;48.746;9.236;2024-02-14T09:34:16;0.38;;;0.38;;
5929;SDS011;2990;48.746;9.236;2024-02-14T09:36:44;0.40;;;0.40;;
5929;SDS011;2990;48.746;9.236;2024-02-14T09:39:13;0.40;;;0.40;;
5929;SDS011;2990;48.746;9.236;2024-02-14T09:41:42;0.30;;;0.30;;
5929;SDS011;2990;48.746;9.236;2024-02-14T09:44:12;0.40;;;0.40;;
5929;SDS011;2990;48.746;9.236;2024-02-14T09:46:38;0.40;;;0.40;;
5929;SDS011;2990;48.746;9.236;2024-02-14T09:49:06;0.45;;;0.45;;
5929;SDS011;2990;48.746;9.236;2024-02-14T09:51:32;0.40;;;0.40;;
5929;SDS011;2990;48.746;9.236;2024-02-14T09:54:01;6.38;;;0.50;;
5929;SDS011;2990;48.746;9.236;2024-02-14T09:56:28;0.20;;;0.20;;
5929;SDS011;2990;48.746;9.236;2024-02-14T09:58:54;0.30;;;0.30;;
5929;SDS011;2990;48.746;9.236;2024-02-14T10:01:21;0.22;;;0.22;;
5929;SDS011;2990;48.746;9.236;2024-02-14T10:03:49;0.30;;;0.30;;
5929;SDS011;2990;48.746;9.236;2024-02-14T10:06:18;0.35;;;0.35;;
5929;SDS011;2990;48.746;9.236;2024-02-14T10:08:47;0.22;;;0.22;;
5929;SDS011;2990;48.746;9.236;2024-02-14T10:11:16;0.30;;;0.30;;
5929;SDS011;2990;48.746;9.236;2024-02-14T10:13:45;0.30;;;0.30;;
5929;SDS011;2990;48.746;9.236;2024-02-14T10:16:12;0.20;;;0.20;;
5929;SDS011;2990;48.746;9.236;2024-02-14T10:18:38;0.38;;;0.38;;
5929;SDS011;2990;48.746;9.236;2024-02-14T10:21:04;0.30;;;0.30;;
5929;SDS011;2990;48.746;9.236;2024-02-14T10:23:30;0.30;;;0.30;;
5929;SDS011;2990;48.746;9.236;2024-02-14T10:25:56;0.22;;;0.22;;
5929;SDS011;2990;48.746;9.236;2024-02-14T10:28:22;1.35;;;0.13;;
5929;SDS011;2990;48.746;9.236;2024-02-14T10:30:48;0.32;;;0.32;;
5929;SDS011;2990;48.746;9.236;2024-02-14T10:33:17;1.10;;;0.32;;
5929;SDS011;2990;48.746;9.236;2024-02-14T10:35:44;0.17;;;0.17;;
5929;SDS011;2990;48.746;9.236;2024-02-14T10:38:10;0.20;;;0.20;;
5929;SDS011;2990;48.746;9.236;2024-02-14T10:40:37;0.20;;;0.20;;
5929;SDS011;2990;48.746;9.236;2024-02-14T10:43:07;0.30;;;0.30;;
5929;SDS011;2990;48.746;9.236;2024-02-14T10:45:37;0.40;;;0.30;;
5929;SDS011;2990;48.746;9.236;2024-02-14T10:48:04;0.68;;;0.40;;
5929;SDS011;2990;48.746;9.236;2024-02-14T10:50:32;0.28;;;0.28;;
5929;SDS011;2990;48.746;9.236;2024-02-14T10:53:00;0.30;;;0.30;;
5929;SDS011;2990;48.746;9.236;2024-02-14T10:55:30;0.30;;;0.30;;
5929;SDS011;2990;48.746;9.236;2024-02-14T10:57:57;0.20;;;0.20;;
5929;SDS011;2990;48.746;9.236;2024-02-14T11:00:23;0.28;;;0.28;;
5929;SDS011;2990;48.746;9.236;2024-02-14T11:02:49;0.30;;;0.30;;
5929;SDS011;2990;48.746;9.236;2024-02-14T11:05:17;0.40;;;0.40;;
5929;SDS011;2990;48.746;9.236;2024-02-14T11:07:47;0.40;;;0.40;;
5929;SDS011;2990;48.746;9.236;2024-02-14T11:10:14;0.35;;;0.35;;
5929;SDS011;2990;48.746;9.236;2024-02-14T11:12:42;0.20;;;0.20;;
5929;SDS011;2990;48.746;9.236;2024-02-14T11:15:19;0.30;;;0.25;;
5929;SDS011;2990;48.746;9.236;2024-02-14T11:17:46;0.68;;;0.30;;
5929;SDS011;2990;48.746;9.236;2024-02-14T11:23:05;0.30;;;0.30;;
5929;SDS011;2990;48.746;9.236;2024-02-14T11:25:34;0.20;;;0.20;;
5929;SDS011;2990;48.746;9.236;2024-02-14T11:28:12;0.20;;;0.20;;
5929;SDS011;2990;48.746;9.236;2024-02-14T11:30:42;0.20;;;0.20;;
5929;SDS011;2990;48.746;9.236;2024-02-14T11:33:22;0.20;;;0.20;;
5929;SDS011;2990;48.746;9.236;2024-02-14T11:35:50;0.20;;;0.20;;
5929;SDS011;2990;48.746;9.236;2024-02-14T11:38:18;0.40;;;0.40;;
5929;SDS011;2990;48.746;9.236;2024-02-14T11:40:44;0.20;;;0.20;;
5929;SDS011;2990;48.746;9.236;2024-02-14T11:43:14;0.20;;;0.20;;
5929;SDS011;2990;48.746;9.236;2024-02-14T11:45:43;0.17;;;0.17;;
5929;SDS011;2990;48.746;9.236;2024-02-14T11:48:11;0.20;;;0.20;;
5929;SDS011;2990;48.746;9.236;2024-02-14T11:50:41;0.20;;;0.20;;
5929;SDS011;2990;48.746;9.236;2024-02-14T11:53:08;0.43;;;0.20;;
5929;SDS011;2990;48.746;9.236;2024-02-14T11:55:38;0.17;;;0.17;;
5929;SDS011;2990;48.746;9.236;2024-02-14T11:58:08;0.10;;;0.10;;
5929;SDS011;2990;48.746;9.236;2024-02-14T12:00:40;0.22;;;0.22;;
5929;SDS011;2990;48.746;9.236;2024-02-14T12:03:11;0.30;;;0.30;;
5929;SDS011;2990;48.746;9.236;2024-02-14T12:05:42;0.28;;;0.28;;
5929;SDS011;2990;48.746;9.236;2024-02-14T12:08:12;0.17;;;0.17;;
5929;SDS011;2990;48.746;9.236;2024-02-14T12:10:38;0.20;;;0.20;;
5929;SDS011;2990;48.746;9.236;2024-02-14T12:13:06;0.13;;;0.13;;
5929;SDS011;2990;48.746;9.236;2024-02-14T12:15:36;0.13;;;0.13;;
5929;SDS011;2990;48.746;9.236;2024-02-14T12:18:11;0.20;;;0.20;;
5929;SDS011;2990;48.746;9.236;2024-02-14T12:20:38;0.20;;;0.20;;
5929;SDS011;2990;48.746;9.236;2024-02-14T12:23:05;0.17;;;0.17;;
5929;SDS011;2990;48.746;9.236;2024-02-14T12:25:31;0.20;;;0.20;;
5929;SDS011;2990;48.746;9.236;2024-02-14T12:27:57;0.20;;;0.20;;
5929;SDS011;2990;48.746;9.236;2024-02-14T12:30:42;0.25;;;0.10;;
5929;SDS011;2990;48.746;9.236;2024-02-14T12:33:13;0.20;;;0.20;;
5929;SDS011;2990;48.746;9.236;2024-02-14T12:35:44;0.20;;;0.20;;
5929;SDS011;2990;48.746;9.236;2024-02-14T12:38:10;0.10;;;0.10;;
5929;SDS011;2990;48.746;9.236;2024-02-14T12:40:36;0.10;;;0.10;;
5929;SDS011;2990;48.746;9.236;2024-02-14T12:43:02;0.20;;;0.20;;
5929;SDS011;2990;48.746;9.236;2024-02-14T12:45:29;0.20;;;0.20;;
5929;SDS011;2990;48.746;9.236;2024-02-14T12:47:54;0.20;;;0.20;;
5929;SDS011;2990;48.746;9.236;2024-02-14T12:50:20;0.20;;;0.10;;
5929;SDS011;2990;48.746;9.236;2024-02-14T12:52:46;0.10;;;0.10;;
5929;SDS011;2990;48.746;9.236;2024-02-14T12:55:13;0.20;;;0.20;;
5929;SDS011;2990;48.746;9.236;2024-02-14T12:57:39;1.13;;;0.10;;
5929;SDS011;2990;48.746;9.236;2024-02-14T13:00:06;0.15;;;0.15;;
5929;SDS011;2990;48.746;9.236;2024-02-14T13:02:33;0.20;;;0.20;;
5929;SDS011;2990;48.746;9.236;2024-02-14T13:05:03;0.10;;;0.10;;
5929;SDS011;2990;48.746;9.236;2024-02-14T13:07:29;0.10;;;0.10;;
5929;SDS011;2990;48.746;9.236;2024-02-14T13:09:56;0.85;;;0.10;;
5929;SDS011;2990;48.746;9.236;2024-02-14T13:12:21;2.83;;;0.20;;
5929;SDS011;2990;48.746;9.236;2024-02-14T13:14:47;0.20;;;0.20;;
5929;SDS011;2990;48.746;9.236;2024-02-14T13:17:13;0.10;;;0.10;;
5929;SDS011;2990;48.746;9.236;2024-02-14T13:19:41;0.20;;;0.20;;
5929;SDS011;2990;48.746;9.236;2024-02-14T13:22:08;0.63;;;0.28;;
5929;SDS011;2990;48.746;9.236;2024-02-14T13:24:34;0.10;;;0.10;;
5929;SDS011;2990;48.746;9.236;2024-02-14T13:27:00;0.10;;;0.10;;
5929;SDS011;2990;48.746;9.236;2024-02-14T13:29:25;0.10;;;0.10;;
5929;SDS011;2990;48.746;9.236;2024-02-14T13:31:51;0.10;;;0.10;;
5929;SDS011;2990;48.746;9.236;2024-02-14T13:34:17;0.10;;;0.10;;
5929;SDS011;2990;48.746;9.236;2024-02-14T13:36:44;0.10;;;0.10;;
5929;SDS011;2990;48.746;9.236;2024-02-14T13:39:11;0.10;;;0.10;;
5929;SDS011;2990;48.746;9.236;2024-02-14T13:41:37;0.10;;;0.10;;
5929;SDS011;2990;48.746;9.236;2024-02-14T13:44:04;0.10;;;0.10;;
5929;SDS011;2990;48.746;9.236;2024-02-14T13:46:31;0.65;;;0.20;;
5929;SDS011;2990;48.746;9.236;2024-02-14T13:48:57;0.20;;;0.20;;
5929;SDS011;2990;48.746;9.236;2024-02-14T13:51:23;0.20;;;0.20;;
5929;SDS011;2990;48.746;9.236;2024-02-14T13:53:48;0.10;;;0.10;;
5929;SDS011;2990;48.746;9.236;2024-02-14T13:56:14;0.20;;;0.20;;
5929;SDS011;2990;48.746;9.236;2024-02-14T13:58:41;0.10;;;0.10;;
5929;SDS011;2990;48.746;9.236;2024-02-14T14:01:06;0.10;;;0.10;;
5929;SDS011;2990;48.746;9.236;2024-02-14T14:03:32;0.10;;;0.10;;
5929;SDS011;2990;48.746;9.236;2024-02-14T14:06:02;0.63;;;0.10;;
5929;SDS011;2990;48.746;9.236;2024-02-14T14:08:28;0.10;;;0.10;;
5929;SDS011;2990;48.746;9.236;2024-02-14T14:10:53;0.10;;;0.10;;
5929;SDS011;2990;48.746;9.236;2024-02-14T14:13:19;0.10;;;0.10;;
5929;SDS011;2990;48.746;9.236;2024-02-14T14:15:45;0.10;;;0.10;;
5929;SDS011;2990;48.746;9.236;2024-02-14T14:18:10;0.10;;;0.10;;
5929;SDS011;2990;48.746;9.236;2024-02-14T14:20:36;0.38;;;0.10;;
5929;SDS011;2990;48.746;9.236;2024-02-14T14:23:01;0.10;;;0.10;;
5929;SDS011;2990;48.746;9.236;2024-02-14T14:25:28;0.17;;;0.17;;
5929;SDS011;2990;48.746;9.236;2024-02-14T14:27:57;0.10;;;0.10;;
5929;SDS011;2990;48.746;9.236;2024-02-14T14:30:27;0.10;;;0.10;;
5929;SDS011;2990;48.746;9.236;2024-02-14T14:32:53;0.10;;;0.10;;
5929;SDS011;2990;48.746;9.236;2024-02-14T14:35:18;0.10;;;0.10;;
5929;SDS011;2990;48.746;9.236;2024-02-14T14:37:44;0.10;;;0.10;;
5929;SDS011;2990;48.746;9.236;2024-02-14T14:40:10;0.15;;;0.10;;
5929;SDS011;2990;48.746;9.236;2024-02-14T14:42:36;0.10;;;0.10;;
5929;SDS011;2990;48.746;9.236;2024-02-14T14:45:02;0.20;;;0.20;;
5929;SDS011;2990;48.746;9.236;2024-02-14T14:47:28;0.10;;;0.10;;
5929;SDS011;2990;48.746;9.236;2024-02-14T14:49:54;0.10;;;0.10;;
5929;SDS011;2990;48.746;9.236;2024-02-14T14:52:19;0.13;;;0.13;;
5929;SDS011;2990;48.746;9.236;2024-02-14T14:54:45;0.20;;;0.20;;
5929;SDS011;2990;48.746;9.236;2024-02-14T14:57:11;0.20;;;0.20;;
5929;SDS011;2990;48.746;9.236;2024-02-14T14:59:40;0.10;;;0.10;;
5929;SDS011;2990;48.746;9.236;2024-02-14T15:02:06;0.10;;;0.10;;
5929;SDS011;2990;48.746;9.236;2024-02-14T15:04:32;0.10;;;0.10;;
5929;SDS011;2990;48.746;9.236;2024-02-14T15:06:59;0.95;;;0.20;;
5929;SDS011;2990;48.746;9.236;2024-02-14T15:09:25;0.20;;;0.20;;
5929;SDS011;2990;48.746;9.236;2024-02-14T15:11:51;0.10;;;0.10;;
5929;SDS011;2990;48.746;9.236;2024-02-14T15:14:18;0.10;;;0.10;;
5929;SDS011;2990;48.746;9.236;2024-02-14T15:16:43;0.10;;;0.10;;
5929;SDS011;2990;48.746;9.236;2024-02-14T15:19:09;0.88;;;0.10;;
5929;SDS011;2990;48.746;9.236;2024-02-14T15:21:34;0.10;;;0.10;;
5929;SDS011;2990;48.746;9.236;2024-02-14T15:24:00;0.05;;;0.05;;